RUK3UE EGAA-EGCC
Flight info
| Callsign | RUK3UE |
|---|---|
| Flight time | 0h 40m |
| Altitude | 25000 |
| Route | LISBO L603 PEPOD Q38 MAKUX |
| Aircraft | B738/M-SDE2E3FGHIRWXY/LB1 |
Departure
| Time | 2026-05-07 08:31 |
|---|---|
| Airport | Belfast International Airport (EGAA) |
Arrival
| Time | 2026-05-07 09:12 |
|---|---|
| Airport | Manchester Airport (EGCC) |
| Time | Latitude | Longitude | Altitude | Speed | Heading |
|---|---|---|---|---|---|
| 2026-05-07 08:03 | 54.66079 | -6.21647 | 271 ft | 0 kts | 335° |
| 2026-05-07 08:20 | 54.66079 | -6.21646 | 271 ft | 1 kts | 335° |
| 2026-05-07 08:20 | 54.66059 | -6.21631 | 271 ft | 4 kts | 335° |
| 2026-05-07 08:20 | 54.66038 | -6.21614 | 271 ft | 4 kts | 335° |
| 2026-05-07 08:21 | 54.66017 | -6.21597 | 271 ft | 4 kts | 335° |
| 2026-05-07 08:21 | 54.65996 | -6.21580 | 271 ft | 4 kts | 335° |
| 2026-05-07 08:21 | 54.65977 | -6.21565 | 271 ft | 4 kts | 340° |
| 2026-05-07 08:21 | 54.65956 | -6.21557 | 271 ft | 4 kts | 8° |
| 2026-05-07 08:22 | 54.65937 | -6.21571 | 271 ft | 4 kts | 50° |
| 2026-05-07 08:22 | 54.65925 | -6.21604 | 271 ft | 4 kts | 69° |
| 2026-05-07 08:22 | 54.65917 | -6.21639 | 271 ft | 4 kts | 65° |
| 2026-05-07 08:22 | 54.65907 | -6.21676 | 271 ft | 4 kts | 65° |
| 2026-05-07 08:23 | 54.65897 | -6.21712 | 271 ft | 4 kts | 65° |
| 2026-05-07 08:23 | 54.65892 | -6.21730 | 271 ft | 0 kts | 65° |
| 2026-05-07 08:26 | 54.65904 | -6.21687 | 272 ft | 8 kts | 65° |
| 2026-05-07 08:26 | 54.65936 | -6.21566 | 272 ft | 13 kts | 65° |
| 2026-05-07 08:26 | 54.65974 | -6.21425 | 273 ft | 13 kts | 65° |
| 2026-05-07 08:27 | 54.66010 | -6.21287 | 271 ft | 12 kts | 64° |
| 2026-05-07 08:27 | 54.66047 | -6.21153 | 271 ft | 12 kts | 65° |
| 2026-05-07 08:27 | 54.66082 | -6.21024 | 271 ft | 12 kts | 65° |
| 2026-05-07 08:27 | 54.66117 | -6.20897 | 272 ft | 12 kts | 65° |
| 2026-05-07 08:28 | 54.66150 | -6.20772 | 271 ft | 11 kts | 65° |
| 2026-05-07 08:28 | 54.66186 | -6.20637 | 271 ft | 14 kts | 65° |
| 2026-05-07 08:28 | 54.66230 | -6.20474 | 273 ft | 15 kts | 65° |
| 2026-05-07 08:28 | 54.66273 | -6.20312 | 274 ft | 15 kts | 64° |
| 2026-05-07 08:29 | 54.66315 | -6.20158 | 271 ft | 14 kts | 65° |
| 2026-05-07 08:29 | 54.66355 | -6.20010 | 271 ft | 13 kts | 65° |
| 2026-05-07 08:29 | 54.66391 | -6.19869 | 272 ft | 13 kts | 73° |
| 2026-05-07 08:29 | 54.66370 | -6.19728 | 271 ft | 13 kts | 132° |
| 2026-05-07 08:30 | 54.66303 | -6.19663 | 271 ft | 9 kts | 155° |
| 2026-05-07 08:30 | 54.66255 | -6.19699 | 271 ft | 9 kts | 248° |
| 2026-05-07 08:30 | 54.66214 | -6.19855 | 271 ft | 35 kts | 244° |
| 2026-05-07 08:30 | 54.66002 | -6.20642 | 271 ft | 107 kts | 245° |
| 2026-05-07 08:31 | 54.65596 | -6.22080 | 427 ft | 147 kts | 239° |
| 2026-05-07 08:31 | 54.65117 | -6.23685 | 1164 ft | 155 kts | 239° |
| 2026-05-07 08:31 | 54.64609 | -6.25359 | 1961 ft | 157 kts | 239° |
| 2026-05-07 08:31 | 54.64115 | -6.27008 | 2944 ft | 151 kts | 239° |
| 2026-05-07 08:32 | 54.63436 | -6.28415 | 3600 ft | 163 kts | 214° |
| 2026-05-07 08:32 | 54.62331 | -6.29163 | 4260 ft | 176 kts | 191° |
| 2026-05-07 08:32 | 54.61087 | -6.29123 | 5066 ft | 182 kts | 173° |
| 2026-05-07 08:32 | 54.59920 | -6.28277 | 5906 ft | 190 kts | 144° |
| 2026-05-07 08:33 | 54.59091 | -6.26311 | 6222 ft | 222 kts | 127° |
| 2026-05-07 08:33 | 54.58234 | -6.23901 | 6459 ft | 250 kts | 126° |
| 2026-05-07 08:33 | 54.57265 | -6.21264 | 6891 ft | 266 kts | 127° |
| 2026-05-07 08:33 | 54.56241 | -6.18552 | 7576 ft | 273 kts | 127° |
| 2026-05-07 08:34 | 54.55182 | -6.15817 | 8373 ft | 275 kts | 127° |
| 2026-05-07 08:34 | 54.54105 | -6.13074 | 9179 ft | 278 kts | 127° |
| 2026-05-07 08:34 | 54.53007 | -6.10293 | 9953 ft | 282 kts | 127° |
| 2026-05-07 08:34 | 54.51841 | -6.07490 | 10376 ft | 297 kts | 131° |
| 2026-05-07 08:35 | 54.50481 | -6.04624 | 10544 ft | 319 kts | 133° |
| 2026-05-07 08:35 | 54.49026 | -6.01672 | 10928 ft | 333 kts | 133° |
| 2026-05-07 08:35 | 54.47513 | -5.98608 | 11537 ft | 339 kts | 133° |
| 2026-05-07 08:35 | 54.45980 | -5.95490 | 12239 ft | 343 kts | 133° |
| 2026-05-07 08:36 | 54.44435 | -5.92334 | 12944 ft | 348 kts | 133° |
| 2026-05-07 08:36 | 54.42869 | -5.89126 | 13635 ft | 353 kts | 133° |
| 2026-05-07 08:36 | 54.41282 | -5.85872 | 14285 ft | 357 kts | 133° |
| 2026-05-07 08:36 | 54.39680 | -5.82586 | 14986 ft | 360 kts | 133° |
| 2026-05-07 08:37 | 54.38068 | -5.79282 | 15679 ft | 363 kts | 133° |
| 2026-05-07 08:37 | 54.36436 | -5.75940 | 16381 ft | 367 kts | 133° |
| 2026-05-07 08:37 | 54.34789 | -5.72571 | 17079 ft | 369 kts | 133° |
| 2026-05-07 08:37 | 54.33128 | -5.69178 | 17774 ft | 373 kts | 133° |
| 2026-05-07 08:38 | 54.31452 | -5.65758 | 18409 ft | 377 kts | 133° |
| 2026-05-07 08:38 | 54.29757 | -5.62305 | 18984 ft | 380 kts | 133° |
| 2026-05-07 08:38 | 54.28048 | -5.58832 | 19579 ft | 383 kts | 133° |
| 2026-05-07 08:38 | 54.26374 | -5.55322 | 20166 ft | 386 kts | 130° |
| 2026-05-07 08:39 | 54.24776 | -5.51600 | 20742 ft | 390 kts | 128° |
| 2026-05-07 08:39 | 54.23206 | -5.47803 | 21310 ft | 393 kts | 127° |
| 2026-05-07 08:39 | 54.21619 | -5.43984 | 21872 ft | 396 kts | 128° |
| 2026-05-07 08:39 | 54.20003 | -5.40156 | 22422 ft | 398 kts | 128° |
| 2026-05-07 08:40 | 54.18368 | -5.36308 | 22999 ft | 400 kts | 128° |
| 2026-05-07 08:40 | 54.16740 | -5.32471 | 23717 ft | 398 kts | 128° |
| 2026-05-07 08:40 | 54.15220 | -5.28886 | 24316 ft | 395 kts | 128° |
| 2026-05-07 08:40 | 54.13613 | -5.25092 | 24875 ft | 394 kts | 129° |
| 2026-05-07 08:41 | 54.12004 | -5.21303 | 25429 ft | 393 kts | 128° |
| 2026-05-07 08:41 | 54.10404 | -5.17541 | 26057 ft | 391 kts | 128° |
| 2026-05-07 08:41 | 54.08895 | -5.13996 | 26624 ft | 389 kts | 128° |
| 2026-05-07 08:41 | 54.07323 | -5.10308 | 26985 ft | 393 kts | 129° |
| 2026-05-07 08:42 | 54.05689 | -5.06487 | 26977 ft | 400 kts | 128° |
| 2026-05-07 08:42 | 54.04053 | -5.02664 | 26988 ft | 398 kts | 128° |
| 2026-05-07 08:42 | 54.02426 | -4.98866 | 26980 ft | 394 kts | 128° |
| 2026-05-07 08:42 | 54.00817 | -4.95113 | 26989 ft | 394 kts | 128° |
| 2026-05-07 08:43 | 53.99199 | -4.91350 | 26996 ft | 395 kts | 128° |
| 2026-05-07 08:43 | 53.97576 | -4.87582 | 26998 ft | 396 kts | 128° |
| 2026-05-07 08:43 | 53.95965 | -4.83855 | 26977 ft | 386 kts | 129° |
| 2026-05-07 08:43 | 53.94402 | -4.80250 | 26978 ft | 372 kts | 129° |
| 2026-05-07 08:44 | 53.92889 | -4.76772 | 26972 ft | 359 kts | 129° |
| 2026-05-07 08:44 | 53.91432 | -4.73426 | 26975 ft | 347 kts | 128° |
| 2026-05-07 08:44 | 53.90007 | -4.70160 | 26486 ft | 348 kts | 128° |
| 2026-05-07 08:44 | 53.88526 | -4.66777 | 25368 ft | 369 kts | 128° |
| 2026-05-07 08:45 | 53.87007 | -4.63309 | 24479 ft | 383 kts | 128° |
| 2026-05-07 08:45 | 53.85434 | -4.59713 | 24011 ft | 382 kts | 128° |
| 2026-05-07 08:45 | 53.83859 | -4.56113 | 23660 ft | 378 kts | 128° |
| 2026-05-07 08:45 | 53.82299 | -4.52556 | 23257 ft | 374 kts | 128° |
| 2026-05-07 08:46 | 53.80770 | -4.49077 | 22876 ft | 370 kts | 129° |
| 2026-05-07 08:46 | 53.79313 | -4.45765 | 22612 ft | 364 kts | 128° |
| 2026-05-07 08:46 | 53.77814 | -4.42358 | 22329 ft | 358 kts | 128° |
| 2026-05-07 08:46 | 53.76330 | -4.38991 | 22058 ft | 354 kts | 128° |
| 2026-05-07 08:47 | 53.74863 | -4.35666 | 21800 ft | 352 kts | 129° |
| 2026-05-07 08:47 | 53.73416 | -4.32392 | 21540 ft | 351 kts | 129° |
| 2026-05-07 08:47 | 53.71958 | -4.29095 | 21279 ft | 349 kts | 128° |
| 2026-05-07 08:47 | 53.70506 | -4.25815 | 21021 ft | 348 kts | 129° |
| 2026-05-07 08:48 | 53.69055 | -4.22541 | 20764 ft | 347 kts | 129° |
| 2026-05-07 08:48 | 53.67610 | -4.19286 | 20510 ft | 346 kts | 129° |
| 2026-05-07 08:48 | 53.66169 | -4.16041 | 20247 ft | 345 kts | 129° |
| 2026-05-07 08:48 | 53.64726 | -4.12804 | 20013 ft | 345 kts | 128° |
| 2026-05-07 08:49 | 53.63313 | -4.09547 | 19753 ft | 344 kts | 123° |
| 2026-05-07 08:49 | 53.62258 | -4.05914 | 19508 ft | 345 kts | 114° |
| 2026-05-07 08:49 | 53.61368 | -4.02173 | 19270 ft | 343 kts | 113° |
| 2026-05-07 08:49 | 53.60508 | -3.98483 | 19026 ft | 342 kts | 113° |
| 2026-05-07 08:50 | 53.59618 | -3.94721 | 18783 ft | 341 kts | 114° |
| 2026-05-07 08:50 | 53.58726 | -3.91020 | 18545 ft | 341 kts | 114° |
| 2026-05-07 08:50 | 53.57837 | -3.87390 | 18360 ft | 339 kts | 114° |
| 2026-05-07 08:50 | 53.56934 | -3.83729 | 18114 ft | 339 kts | 115° |
| 2026-05-07 08:51 | 53.56027 | -3.80074 | 17829 ft | 338 kts | 115° |
| 2026-05-07 08:51 | 53.55119 | -3.76424 | 17546 ft | 336 kts | 115° |
| 2026-05-07 08:51 | 53.54217 | -3.72808 | 17276 ft | 334 kts | 115° |
| 2026-05-07 08:51 | 53.53319 | -3.69217 | 17008 ft | 332 kts | 115° |
| 2026-05-07 08:52 | 53.52420 | -3.65629 | 16653 ft | 333 kts | 115° |
| 2026-05-07 08:52 | 53.51517 | -3.62031 | 16303 ft | 334 kts | 115° |
| 2026-05-07 08:52 | 53.50612 | -3.58432 | 15943 ft | 335 kts | 115° |
| 2026-05-07 08:52 | 53.49705 | -3.54829 | 15596 ft | 335 kts | 115° |
| 2026-05-07 08:53 | 53.48796 | -3.51225 | 15244 ft | 334 kts | 115° |
| 2026-05-07 08:53 | 53.47894 | -3.47647 | 14899 ft | 332 kts | 115° |
| 2026-05-07 08:53 | 53.46992 | -3.44077 | 14548 ft | 330 kts | 115° |
| 2026-05-07 08:53 | 53.46106 | -3.40577 | 14207 ft | 329 kts | 115° |
| 2026-05-07 08:54 | 53.45212 | -3.37048 | 13860 ft | 328 kts | 115° |
| 2026-05-07 08:54 | 53.44320 | -3.33535 | 13476 ft | 327 kts | 115° |
| 2026-05-07 08:54 | 53.43431 | -3.30040 | 13099 ft | 325 kts | 115° |
| 2026-05-07 08:54 | 53.42545 | -3.26554 | 12753 ft | 323 kts | 116° |
| 2026-05-07 08:55 | 53.41663 | -3.23096 | 12404 ft | 321 kts | 116° |
| 2026-05-07 08:55 | 53.40788 | -3.19677 | 12063 ft | 319 kts | 116° |
| 2026-05-07 08:55 | 53.39968 | -3.16240 | 11722 ft | 318 kts | 108° |
| 2026-05-07 08:55 | 53.39865 | -3.12546 | 11404 ft | 321 kts | 81° |
| 2026-05-07 08:56 | 53.40637 | -3.09041 | 11073 ft | 322 kts | 63° |
| 2026-05-07 08:56 | 53.41754 | -3.05790 | 10730 ft | 321 kts | 61° |
| 2026-05-07 08:56 | 53.42884 | -3.02614 | 10391 ft | 321 kts | 60° |
| 2026-05-07 08:56 | 53.44027 | -2.99403 | 10052 ft | 320 kts | 60° |
| 2026-05-07 08:57 | 53.45151 | -2.96220 | 9966 ft | 310 kts | 61° |
| 2026-05-07 08:57 | 53.46221 | -2.93165 | 9958 ft | 298 kts | 61° |
| 2026-05-07 08:57 | 53.47256 | -2.90187 | 9787 ft | 293 kts | 62° |
| 2026-05-07 08:57 | 53.48286 | -2.87252 | 9510 ft | 291 kts | 60° |
| 2026-05-07 08:58 | 53.49347 | -2.84353 | 9272 ft | 288 kts | 60° |
| 2026-05-07 08:58 | 53.50402 | -2.81489 | 8944 ft | 289 kts | 60° |
| 2026-05-07 08:58 | 53.51463 | -2.78607 | 8573 ft | 292 kts | 59° |
| 2026-05-07 08:58 | 53.52525 | -2.75708 | 8307 ft | 290 kts | 59° |
| 2026-05-07 08:59 | 53.53568 | -2.72851 | 8059 ft | 290 kts | 59° |
| 2026-05-07 08:59 | 53.54616 | -2.69966 | 7802 ft | 288 kts | 60° |
| 2026-05-07 08:59 | 53.55461 | -2.66938 | 7545 ft | 286 kts | 69° |
| 2026-05-07 08:59 | 53.56201 | -2.63832 | 7288 ft | 285 kts | 69° |
| 2026-05-07 09:00 | 53.56929 | -2.60745 | 7046 ft | 283 kts | 69° |
| 2026-05-07 09:00 | 53.57649 | -2.57658 | 6790 ft | 283 kts | 70° |
| 2026-05-07 09:00 | 53.58119 | -2.55615 | 6625 ft | 282 kts | 70° |
| 2026-05-07 09:00 | 53.58821 | -2.52543 | 6375 ft | 280 kts | 70° |
| 2026-05-07 09:01 | 53.59517 | -2.49487 | 6109 ft | 279 kts | 70° |
| 2026-05-07 09:01 | 53.60213 | -2.46441 | 5843 ft | 278 kts | 70° |
| 2026-05-07 09:01 | 53.60908 | -2.43410 | 5589 ft | 277 kts | 70° |
| 2026-05-07 09:01 | 53.61601 | -2.40401 | 5329 ft | 274 kts | 70° |
| 2026-05-07 09:02 | 53.62293 | -2.37416 | 5065 ft | 272 kts | 70° |
| 2026-05-07 09:02 | 53.62980 | -2.34472 | 4863 ft | 267 kts | 70° |
| 2026-05-07 09:02 | 53.63629 | -2.31564 | 4676 ft | 262 kts | 77° |
| 2026-05-07 09:02 | 53.63743 | -2.28556 | 4487 ft | 254 kts | 95° |
| 2026-05-07 09:03 | 53.63655 | -2.25604 | 4314 ft | 251 kts | 95° |
| 2026-05-07 09:03 | 53.63574 | -2.22679 | 4123 ft | 248 kts | 97° |
| 2026-05-07 09:03 | 53.63089 | -2.20017 | 3934 ft | 239 kts | 126° |
| 2026-05-07 09:03 | 53.62066 | -2.17851 | 3692 ft | 235 kts | 134° |
| 2026-05-07 09:04 | 53.60993 | -2.15819 | 3426 ft | 230 kts | 135° |
| 2026-05-07 09:04 | 53.59936 | -2.13837 | 3124 ft | 227 kts | 135° |
| 2026-05-07 09:04 | 53.58898 | -2.11897 | 2990 ft | 216 kts | 135° |
| 2026-05-07 09:04 | 53.57926 | -2.10075 | 2972 ft | 204 kts | 135° |
| 2026-05-07 09:05 | 53.57015 | -2.08359 | 2987 ft | 189 kts | 135° |
| 2026-05-07 09:05 | 53.56170 | -2.06757 | 2993 ft | 181 kts | 134° |
| 2026-05-07 09:05 | 53.55329 | -2.05187 | 3005 ft | 179 kts | 135° |
| 2026-05-07 09:05 | 53.54417 | -2.03784 | 2988 ft | 177 kts | 151° |
| 2026-05-07 09:06 | 53.53367 | -2.02708 | 2989 ft | 178 kts | 151° |
| 2026-05-07 09:06 | 53.52217 | -2.02122 | 2994 ft | 173 kts | 183° |
| 2026-05-07 09:06 | 53.51024 | -2.02387 | 2981 ft | 173 kts | 189° |
| 2026-05-07 09:06 | 53.49846 | -2.02721 | 2993 ft | 172 kts | 189° |
| 2026-05-07 09:07 | 53.48660 | -2.03074 | 2985 ft | 173 kts | 190° |
| 2026-05-07 09:07 | 53.47487 | -2.03438 | 2994 ft | 172 kts | 194° |
| 2026-05-07 09:07 | 53.46522 | -2.04524 | 2995 ft | 174 kts | 233° |
| 2026-05-07 09:07 | 53.45805 | -2.06159 | 2999 ft | 176 kts | 227° |
| 2026-05-07 09:08 | 53.45018 | -2.07715 | 2984 ft | 171 kts | 227° |
| 2026-05-07 09:08 | 53.44264 | -2.09235 | 2854 ft | 169 kts | 227° |
| 2026-05-07 09:08 | 53.43520 | -2.10757 | 2645 ft | 168 kts | 227° |
| 2026-05-07 09:08 | 53.42784 | -2.12268 | 2431 ft | 166 kts | 227° |
| 2026-05-07 09:09 | 53.42062 | -2.13750 | 2197 ft | 162 kts | 227° |
| 2026-05-07 09:09 | 53.41389 | -2.15135 | 1997 ft | 149 kts | 226° |
| 2026-05-07 09:09 | 53.40760 | -2.16428 | 1781 ft | 139 kts | 226° |
| 2026-05-07 09:09 | 53.40152 | -2.17677 | 1592 ft | 139 kts | 226° |
| 2026-05-07 09:10 | 53.39530 | -2.18952 | 1397 ft | 142 kts | 226° |
| 2026-05-07 09:10 | 53.38911 | -2.20224 | 1187 ft | 141 kts | 227° |
| 2026-05-07 09:10 | 53.38287 | -2.21508 | 984 ft | 142 kts | 228° |
| 2026-05-07 09:10 | 53.37657 | -2.22775 | 803 ft | 143 kts | 229° |
| 2026-05-07 09:11 | 53.37041 | -2.24092 | 621 ft | 144 kts | 231° |
| 2026-05-07 09:11 | 53.36400 | -2.25392 | 395 ft | 145 kts | 227° |
| 2026-05-07 09:11 | 53.35775 | -2.26677 | 272 ft | 134 kts | 230° |
| 2026-05-07 09:11 | 53.35255 | -2.27738 | 237 ft | 99 kts | 230° |
| 2026-05-07 09:12 | 53.35031 | -2.28212 | 231 ft | 36 kts | 238° |
| 2026-05-07 09:12 | 53.34949 | -2.28590 | 231 ft | 23 kts | 259° |
| 2026-05-07 09:12 | 53.34973 | -2.28748 | 227 ft | 10 kts | 327° |
| 2026-05-07 09:12 | 53.35034 | -2.28708 | 227 ft | 10 kts | 47° |
| 2026-05-07 09:13 | 53.35080 | -2.28616 | 228 ft | 10 kts | 52° |
| 2026-05-07 09:13 | 53.35125 | -2.28519 | 226 ft | 12 kts | 51° |
| 2026-05-07 09:13 | 53.35175 | -2.28414 | 227 ft | 12 kts | 50° |
| 2026-05-07 09:13 | 53.35227 | -2.28310 | 231 ft | 12 kts | 51° |
| 2026-05-07 09:14 | 53.35295 | -2.28181 | 232 ft | 18 kts | 44° |
| 2026-05-07 09:14 | 53.35388 | -2.28031 | 237 ft | 19 kts | 44° |
| 2026-05-07 09:14 | 53.35454 | -2.27900 | 238 ft | 13 kts | 72° |
| 2026-05-07 09:14 | 53.35473 | -2.27758 | 238 ft | 13 kts | 56° |
| 2026-05-07 09:15 | 53.35530 | -2.27641 | 239 ft | 13 kts | 50° |
| 2026-05-07 09:15 | 53.35594 | -2.27506 | 243 ft | 18 kts | 52° |
| 2026-05-07 09:15 | 53.35679 | -2.27333 | 254 ft | 21 kts | 51° |
| 2026-05-07 09:15 | 53.35779 | -2.27124 | 254 ft | 25 kts | 51° |
| 2026-05-07 09:16 | 53.35852 | -2.26943 | 255 ft | 15 kts | 57° |
| 2026-05-07 09:16 | 53.35912 | -2.26844 | 255 ft | 12 kts | 22° |
| 2026-05-07 09:16 | 53.35961 | -2.26923 | 254 ft | 6 kts | 292° |
| 2026-05-07 09:16 | 53.35974 | -2.26978 | 254 ft | 0 kts | 291° |
| 2026-05-07 09:17 | 53.35975 | -2.26983 | 254 ft | 0 kts | 291° |